sensor_id;sensor_type;location;lat;lon;timestamp;temperature;humidity
74537;SHT31;63013;51.104;-115.370;2023-06-26T00:01:35;19.73;47.80
74537;SHT31;63013;51.104;-115.370;2023-06-26T00:04:09;19.74;47.75
74537;SHT31;63013;51.104;-115.370;2023-06-26T00:06:40;19.75;47.70
74537;SHT31;63013;51.104;-115.370;2023-06-26T00:09:07;19.77;47.69
74537;SHT31;63013;51.104;-115.370;2023-06-26T00:11:34;19.78;47.65
74537;SHT31;63013;51.104;-115.370;2023-06-26T00:14:01;19.79;47.65
74537;SHT31;63013;51.104;-115.370;2023-06-26T00:16:28;19.80;47.67
74537;SHT31;63013;51.104;-115.370;2023-06-26T00:18:56;19.81;47.64
74537;SHT31;63013;51.104;-115.370;2023-06-26T00:21:24;19.82;47.61
74537;SHT31;63013;51.104;-115.370;2023-06-26T00:23:52;19.82;47.61
74537;SHT31;63013;51.104;-115.370;2023-06-26T00:26:19;19.83;47.59
74537;SHT31;63013;51.104;-115.370;2023-06-26T00:28:47;19.83;47.58
74537;SHT31;63013;51.104;-115.370;2023-06-26T00:31:14;19.85;47.54
74537;SHT31;63013;51.104;-115.370;2023-06-26T00:33:41;19.85;47.52
74537;SHT31;63013;51.104;-115.370;2023-06-26T00:36:08;19.86;47.51
74537;SHT31;63013;51.104;-115.370;2023-06-26T00:38:35;19.88;47.51
74537;SHT31;63013;51.104;-115.370;2023-06-26T00:41:01;19.87;47.51
74537;SHT31;63013;51.104;-115.370;2023-06-26T00:43:30;19.88;47.49
74537;SHT31;63013;51.104;-115.370;2023-06-26T00:45:58;19.89;47.50
74537;SHT31;63013;51.104;-115.370;2023-06-26T00:48:25;19.89;47.50
74537;SHT31;63013;51.104;-115.370;2023-06-26T00:50:53;19.89;47.50
74537;SHT31;63013;51.104;-115.370;2023-06-26T00:53:20;19.91;47.50
74537;SHT31;63013;51.104;-115.370;2023-06-26T00:55:48;19.91;47.44
74537;SHT31;63013;51.104;-115.370;2023-06-26T00:58:15;19.92;47.41
74537;SHT31;63013;51.104;-115.370;2023-06-26T01:00:42;19.93;47.40
74537;SHT31;63013;51.104;-115.370;2023-06-26T01:03:11;19.93;47.38
74537;SHT31;63013;51.104;-115.370;2023-06-26T01:05:38;19.95;47.36
74537;SHT31;63013;51.104;-115.370;2023-06-26T01:08:05;19.95;47.30
74537;SHT31;63013;51.104;-115.370;2023-06-26T01:10:33;19.96;47.28
74537;SHT31;63013;51.104;-115.370;2023-06-26T01:13:00;19.97;47.21
74537;SHT31;63013;51.104;-115.370;2023-06-26T01:15:27;19.98;47.20
74537;SHT31;63013;51.104;-115.370;2023-06-26T01:17:55;20.00;47.28
74537;SHT31;63013;51.104;-115.370;2023-06-26T01:20:32;20.03;47.25
74537;SHT31;63013;51.104;-115.370;2023-06-26T01:26:22;20.08;47.24
74537;SHT31;63013;51.104;-115.370;2023-06-26T01:28:54;20.09;47.20
74537;SHT31;63013;51.104;-115.370;2023-06-26T01:31:26;20.12;47.07
74537;SHT31;63013;51.104;-115.370;2023-06-26T01:33:56;20.14;47.02
74537;SHT31;63013;51.104;-115.370;2023-06-26T01:36:26;20.16;47.07
74537;SHT31;63013;51.104;-115.370;2023-06-26T01:38:53;20.18;47.10
74537;SHT31;63013;51.104;-115.370;2023-06-26T01:41:21;20.20;47.07
74537;SHT31;63013;51.104;-115.370;2023-06-26T01:47:04;20.26;46.89
74537;SHT31;63013;51.104;-115.370;2023-06-26T01:52:25;20.31;46.81
74537;SHT31;63013;51.104;-115.370;2023-06-26T01:58:16;20.35;46.82
74537;SHT31;63013;51.104;-115.370;2023-06-26T02:00:48;20.38;46.89
74537;SHT31;63013;51.104;-115.370;2023-06-26T02:03:17;20.40;46.81
74537;SHT31;63013;51.104;-115.370;2023-06-26T02:05:45;20.42;46.80
74537;SHT31;63013;51.104;-115.370;2023-06-26T02:08:13;20.44;46.77
74537;SHT31;63013;51.104;-115.370;2023-06-26T02:10:40;20.46;46.76
74537;SHT31;63013;51.104;-115.370;2023-06-26T02:13:07;20.48;46.76
74537;SHT31;63013;51.104;-115.370;2023-06-26T02:15:35;20.50;46.80
74537;SHT31;63013;51.104;-115.370;2023-06-26T02:18:01;20.53;46.75
74537;SHT31;63013;51.104;-115.370;2023-06-26T02:20:28;20.55;46.72
74537;SHT31;63013;51.104;-115.370;2023-06-26T02:22:55;20.57;46.70
74537;SHT31;63013;51.104;-115.370;2023-06-26T02:25:22;20.60;46.70
74537;SHT31;63013;51.104;-115.370;2023-06-26T02:27:49;20.62;46.71
74537;SHT31;63013;51.104;-115.370;2023-06-26T02:30:17;20.64;46.66
74537;SHT31;63013;51.104;-115.370;2023-06-26T02:32:44;20.65;46.62
74537;SHT31;63013;51.104;-115.370;2023-06-26T02:35:11;20.66;46.72
74537;SHT31;63013;51.104;-115.370;2023-06-26T02:37:37;20.68;46.74
74537;SHT31;63013;51.104;-115.370;2023-06-26T02:40:05;20.69;46.63
74537;SHT31;63013;51.104;-115.370;2023-06-26T02:42:34;20.70;46.73
74537;SHT31;63013;51.104;-115.370;2023-06-26T02:45:01;20.70;46.84
74537;SHT31;63013;51.104;-115.370;2023-06-26T02:47:28;20.72;46.92
74537;SHT31;63013;51.104;-115.370;2023-06-26T02:49:55;20.73;46.98
74537;SHT31;63013;51.104;-115.370;2023-06-26T02:52:22;20.74;47.00
74537;SHT31;63013;51.104;-115.370;2023-06-26T02:54:49;20.75;47.00
74537;SHT31;63013;51.104;-115.370;2023-06-26T02:57:16;20.75;46.98
74537;SHT31;63013;51.104;-115.370;2023-06-26T02:59:43;20.75;46.93
74537;SHT31;63013;51.104;-115.370;2023-06-26T03:02:10;20.76;46.93
74537;SHT31;63013;51.104;-115.370;2023-06-26T03:04:38;20.77;46.97
74537;SHT31;63013;51.104;-115.370;2023-06-26T03:07:04;20.76;46.94
74537;SHT31;63013;51.104;-115.370;2023-06-26T03:09:31;20.76;46.93
74537;SHT31;63013;51.104;-115.370;2023-06-26T03:11:59;20.76;46.91
74537;SHT31;63013;51.104;-115.370;2023-06-26T03:14:26;20.75;46.90
74537;SHT31;63013;51.104;-115.370;2023-06-26T03:16:54;20.74;46.90
74537;SHT31;63013;51.104;-115.370;2023-06-26T03:19:23;20.74;46.88
74537;SHT31;63013;51.104;-115.370;2023-06-26T03:21:50;20.75;46.81
74537;SHT31;63013;51.104;-115.370;2023-06-26T03:24:17;20.73;46.79
74537;SHT31;63013;51.104;-115.370;2023-06-26T03:26:45;20.73;46.78
74537;SHT31;63013;51.104;-115.370;2023-06-26T03:29:12;20.71;46.79
74537;SHT31;63013;51.104;-115.370;2023-06-26T03:31:39;20.70;46.80
74537;SHT31;63013;51.104;-115.370;2023-06-26T03:34:06;20.69;46.80
74537;SHT31;63013;51.104;-115.370;2023-06-26T03:36:33;20.69;46.78
74537;SHT31;63013;51.104;-115.370;2023-06-26T03:39:00;20.68;46.77
74537;SHT31;63013;51.104;-115.370;2023-06-26T03:41:29;20.67;46.73
74537;SHT31;63013;51.104;-115.370;2023-06-26T03:43:56;20.66;46.76
74537;SHT31;63013;51.104;-115.370;2023-06-26T03:46:23;20.65;46.78
74537;SHT31;63013;51.104;-115.370;2023-06-26T03:48:50;20.63;46.78
74537;SHT31;63013;51.104;-115.370;2023-06-26T03:51:17;20.64;46.76
74537;SHT31;63013;51.104;-115.370;2023-06-26T03:53:45;20.62;46.78
74537;SHT31;63013;51.104;-115.370;2023-06-26T03:56:12;20.62;46.79
74537;SHT31;63013;51.104;-115.370;2023-06-26T03:58:39;20.60;46.79
74537;SHT31;63013;51.104;-115.370;2023-06-26T04:01:06;20.59;46.77
74537;SHT31;63013;51.104;-115.370;2023-06-26T04:03:33;20.59;46.73
74537;SHT31;63013;51.104;-115.370;2023-06-26T04:06:00;20.58;46.79
74537;SHT31;63013;51.104;-115.370;2023-06-26T04:08:28;20.57;46.80
74537;SHT31;63013;51.104;-115.370;2023-06-26T04:10:55;20.57;46.79
74537;SHT31;63013;51.104;-115.370;2023-06-26T04:13:24;20.56;46.83
74537;SHT31;63013;51.104;-115.370;2023-06-26T04:15:51;20.55;46.83
74537;SHT31;63013;51.104;-115.370;2023-06-26T04:18:18;20.54;46.86
74537;SHT31;63013;51.104;-115.370;2023-06-26T04:21:04;20.52;46.90
74537;SHT31;63013;51.104;-115.370;2023-06-26T04:23:39;20.50;46.90
74537;SHT31;63013;51.104;-115.370;2023-06-26T04:26:06;20.50;46.97
74537;SHT31;63013;51.104;-115.370;2023-06-26T04:28:34;20.50;46.99
74537;SHT31;63013;51.104;-115.370;2023-06-26T04:31:01;20.49;47.01
74537;SHT31;63013;51.104;-115.370;2023-06-26T04:33:29;20.49;47.02
74537;SHT31;63013;51.104;-115.370;2023-06-26T04:35:56;20.47;47.08
74537;SHT31;63013;51.104;-115.370;2023-06-26T04:38:28;20.47;47.01
74537;SHT31;63013;51.104;-115.370;2023-06-26T04:40:59;20.44;47.01
74537;SHT31;63013;51.104;-115.370;2023-06-26T04:43:27;20.45;47.63
74537;SHT31;63013;51.104;-115.370;2023-06-26T04:45:54;20.45;48.75
74537;SHT31;63013;51.104;-115.370;2023-06-26T04:48:22;20.44;49.55
74537;SHT31;63013;51.104;-115.370;2023-06-26T04:50:49;20.44;49.95
74537;SHT31;63013;51.104;-115.370;2023-06-26T04:53:22;20.44;50.17
74537;SHT31;63013;51.104;-115.370;2023-06-26T04:55:50;20.44;50.40
74537;SHT31;63013;51.104;-115.370;2023-06-26T04:58:18;20.45;50.49
74537;SHT31;63013;51.104;-115.370;2023-06-26T05:00:46;20.44;50.48
74537;SHT31;63013;51.104;-115.370;2023-06-26T05:03:13;20.44;50.51
74537;SHT31;63013;51.104;-115.370;2023-06-26T05:05:42;20.43;50.54
74537;SHT31;63013;51.104;-115.370;2023-06-26T05:08:16;20.42;50.55
74537;SHT31;63013;51.104;-115.370;2023-06-26T05:10:48;20.42;50.56
74537;SHT31;63013;51.104;-115.370;2023-06-26T05:13:16;20.42;50.46
74537;SHT31;63013;51.104;-115.370;2023-06-26T05:15:44;20.41;50.40
74537;SHT31;63013;51.104;-115.370;2023-06-26T05:18:12;20.40;50.32
74537;SHT31;63013;51.104;-115.370;2023-06-26T05:20:39;20.39;50.25
74537;SHT31;63013;51.104;-115.370;2023-06-26T05:23:07;20.40;50.09
74537;SHT31;63013;51.104;-115.370;2023-06-26T05:25:36;20.39;50.04
74537;SHT31;63013;51.104;-115.370;2023-06-26T05:28:04;20.38;49.92
74537;SHT31;63013;51.104;-115.370;2023-06-26T05:30:34;20.38;49.83
74537;SHT31;63013;51.104;-115.370;2023-06-26T05:33:01;20.37;49.74
74537;SHT31;63013;51.104;-115.370;2023-06-26T05:35:31;20.37;49.65
74537;SHT31;63013;51.104;-115.370;2023-06-26T05:37:59;20.37;49.52
74537;SHT31;63013;51.104;-115.370;2023-06-26T05:40:27;20.36;49.40
74537;SHT31;63013;51.104;-115.370;2023-06-26T05:42:55;20.37;49.38
74537;SHT31;63013;51.104;-115.370;2023-06-26T05:45:22;20.36;49.25
74537;SHT31;63013;51.104;-115.370;2023-06-26T05:47:49;20.36;49.17
74537;SHT31;63013;51.104;-115.370;2023-06-26T05:50:17;20.36;49.04
74537;SHT31;63013;51.104;-115.370;2023-06-26T05:52:45;20.35;48.97
74537;SHT31;63013;51.104;-115.370;2023-06-26T05:55:13;20.35;48.92
74537;SHT31;63013;51.104;-115.370;2023-06-26T05:57:41;20.35;48.93
74537;SHT31;63013;51.104;-115.370;2023-06-26T06:00:09;20.34;48.84
74537;SHT31;63013;51.104;-115.370;2023-06-26T06:02:36;20.34;48.80
74537;SHT31;63013;51.104;-115.370;2023-06-26T06:05:04;20.33;48.78
74537;SHT31;63013;51.104;-115.370;2023-06-26T06:07:32;20.33;48.73
74537;SHT31;63013;51.104;-115.370;2023-06-26T06:10:00;20.32;48.75
74537;SHT31;63013;51.104;-115.370;2023-06-26T06:12:28;20.31;48.67
74537;SHT31;63013;51.104;-115.370;2023-06-26T06:14:55;20.31;48.63
74537;SHT31;63013;51.104;-115.370;2023-06-26T06:17:22;20.30;48.55
74537;SHT31;63013;51.104;-115.370;2023-06-26T06:19:49;20.30;48.52
74537;SHT31;63013;51.104;-115.370;2023-06-26T06:22:16;20.29;48.45
74537;SHT31;63013;51.104;-115.370;2023-06-26T06:24:43;20.29;48.39
74537;SHT31;63013;51.104;-115.370;2023-06-26T06:27:10;20.29;48.38
74537;SHT31;63013;51.104;-115.370;2023-06-26T06:29:38;20.28;48.34
74537;SHT31;63013;51.104;-115.370;2023-06-26T06:32:05;20.28;48.31
74537;SHT31;63013;51.104;-115.370;2023-06-26T06:34:33;20.27;48.30
74537;SHT31;63013;51.104;-115.370;2023-06-26T06:37:01;20.26;48.24
74537;SHT31;63013;51.104;-115.370;2023-06-26T06:39:29;20.26;48.24
74537;SHT31;63013;51.104;-115.370;2023-06-26T06:41:56;20.25;48.21
74537;SHT31;63013;51.104;-115.370;2023-06-26T06:44:23;20.24;48.20
74537;SHT31;63013;51.104;-115.370;2023-06-26T06:46:50;20.24;48.14
74537;SHT31;63013;51.104;-115.370;2023-06-26T06:49:18;20.23;48.10
74537;SHT31;63013;51.104;-115.370;2023-06-26T06:51:45;20.22;48.10
74537;SHT31;63013;51.104;-115.370;2023-06-26T06:54:12;20.22;48.01
74537;SHT31;63013;51.104;-115.370;2023-06-26T06:56:40;20.21;47.99
74537;SHT31;63013;51.104;-115.370;2023-06-26T06:59:08;20.20;47.97
74537;SHT31;63013;51.104;-115.370;2023-06-26T07:01:35;20.19;47.91
74537;SHT31;63013;51.104;-115.370;2023-06-26T07:04:02;20.19;47.92
74537;SHT31;63013;51.104;-115.370;2023-06-26T07:06:30;20.19;47.89
74537;SHT31;63013;51.104;-115.370;2023-06-26T07:08:57;20.18;47.82
74537;SHT31;63013;51.104;-115.370;2023-06-26T07:11:24;20.17;47.82
74537;SHT31;63013;51.104;-115.370;2023-06-26T07:13:50;20.16;47.81
74537;SHT31;63013;51.104;-115.370;2023-06-26T07:16:17;20.15;47.80
74537;SHT31;63013;51.104;-115.370;2023-06-26T07:18:44;20.15;47.72
74537;SHT31;63013;51.104;-115.370;2023-06-26T07:21:12;20.14;47.72
74537;SHT31;63013;51.104;-115.370;2023-06-26T07:23:38;20.13;47.71
74537;SHT31;63013;51.104;-115.370;2023-06-26T07:26:06;20.13;47.71
74537;SHT31;63013;51.104;-115.370;2023-06-26T07:28:33;20.12;47.71
74537;SHT31;63013;51.104;-115.370;2023-06-26T07:31:00;20.10;47.65
74537;SHT31;63013;51.104;-115.370;2023-06-26T07:33:27;20.10;47.57
74537;SHT31;63013;51.104;-115.370;2023-06-26T07:35:54;20.09;47.61
74537;SHT31;63013;51.104;-115.370;2023-06-26T07:38:22;20.08;47.56
74537;SHT31;63013;51.104;-115.370;2023-06-26T07:40:48;20.08;47.48
74537;SHT31;63013;51.104;-115.370;2023-06-26T07:43:16;20.07;47.46
74537;SHT31;63013;51.104;-115.370;2023-06-26T07:45:43;20.06;47.44
74537;SHT31;63013;51.104;-115.370;2023-06-26T07:48:10;20.05;47.39
74537;SHT31;63013;51.104;-115.370;2023-06-26T07:50:37;20.05;47.40
74537;SHT31;63013;51.104;-115.370;2023-06-26T07:53:04;20.04;47.41
74537;SHT31;63013;51.104;-115.370;2023-06-26T07:55:31;20.03;47.36
74537;SHT31;63013;51.104;-115.370;2023-06-26T07:57:58;20.02;47.30
74537;SHT31;63013;51.104;-115.370;2023-06-26T08:00:26;20.02;47.25
74537;SHT31;63013;51.104;-115.370;2023-06-26T08:02:53;20.01;47.27
74537;SHT31;63013;51.104;-115.370;2023-06-26T08:05:20;20.00;47.24
74537;SHT31;63013;51.104;-115.370;2023-06-26T08:07:47;19.99;47.20
74537;SHT31;63013;51.104;-115.370;2023-06-26T08:10:14;19.99;47.15
74537;SHT31;63013;51.104;-115.370;2023-06-26T08:12:42;19.98;47.12
74537;SHT31;63013;51.104;-115.370;2023-06-26T08:15:10;19.97;47.08
74537;SHT31;63013;51.104;-115.370;2023-06-26T08:17:38;19.96;46.96
74537;SHT31;63013;51.104;-115.370;2023-06-26T08:20:05;19.96;47.02
74537;SHT31;63013;51.104;-115.370;2023-06-26T08:22:36;19.95;47.03
74537;SHT31;63013;51.104;-115.370;2023-06-26T08:25:03;19.94;47.00
74537;SHT31;63013;51.104;-115.370;2023-06-26T08:27:31;19.92;46.96
74537;SHT31;63013;51.104;-115.370;2023-06-26T08:29:58;19.92;46.92
74537;SHT31;63013;51.104;-115.370;2023-06-26T08:32:25;19.92;46.91
74537;SHT31;63013;51.104;-115.370;2023-06-26T08:34:52;19.91;46.84
74537;SHT31;63013;51.104;-115.370;2023-06-26T08:37:19;19.90;46.80
74537;SHT31;63013;51.104;-115.370;2023-06-26T08:39:47;19.90;46.74
74537;SHT31;63013;51.104;-115.370;2023-06-26T08:42:14;19.89;46.66
74537;SHT31;63013;51.104;-115.370;2023-06-26T08:44:42;19.89;46.68
74537;SHT31;63013;51.104;-115.370;2023-06-26T08:47:09;19.88;46.59
74537;SHT31;63013;51.104;-115.370;2023-06-26T08:49:50;19.88;46.62
74537;SHT31;63013;51.104;-115.370;2023-06-26T08:52:55;19.87;46.64
74537;SHT31;63013;51.104;-115.370;2023-06-26T08:55:46;19.86;46.59
74537;SHT31;63013;51.104;-115.370;2023-06-26T08:58:18;19.85;46.53
74537;SHT31;63013;51.104;-115.370;2023-06-26T09:00:46;19.85;46.53
74537;SHT31;63013;51.104;-115.370;2023-06-26T09:03:15;19.84;46.48
74537;SHT31;63013;51.104;-115.370;2023-06-26T09:05:43;19.83;46.48
74537;SHT31;63013;51.104;-115.370;2023-06-26T09:08:10;19.82;46.45
74537;SHT31;63013;51.104;-115.370;2023-06-26T09:10:38;19.81;46.44
74537;SHT31;63013;51.104;-115.370;2023-06-26T09:13:06;19.80;46.43
74537;SHT31;63013;51.104;-115.370;2023-06-26T09:15:43;19.78;46.35
74537;SHT31;63013;51.104;-115.370;2023-06-26T09:18:12;19.77;46.36
74537;SHT31;63013;51.104;-115.370;2023-06-26T09:20:44;19.77;46.32
74537;SHT31;63013;51.104;-115.370;2023-06-26T09:23:12;19.76;46.40
74537;SHT31;63013;51.104;-115.370;2023-06-26T09:25:39;19.75;46.38
74537;SHT31;63013;51.104;-115.370;2023-06-26T09:28:08;19.74;46.29
74537;SHT31;63013;51.104;-115.370;2023-06-26T09:30:35;19.72;46.22
74537;SHT31;63013;51.104;-115.370;2023-06-26T09:33:15;19.73;46.16
74537;SHT31;63013;51.104;-115.370;2023-06-26T09:35:47;19.71;46.14
74537;SHT31;63013;51.104;-115.370;2023-06-26T09:38:14;19.71;46.11
74537;SHT31;63013;51.104;-115.370;2023-06-26T09:40:43;19.70;46.12
74537;SHT31;63013;51.104;-115.370;2023-06-26T09:43:12;19.69;46.09
74537;SHT31;63013;51.104;-115.370;2023-06-26T09:45:40;19.68;46.14
74537;SHT31;63013;51.104;-115.370;2023-06-26T09:48:07;19.67;46.07
74537;SHT31;63013;51.104;-115.370;2023-06-26T09:50:34;19.66;45.97
74537;SHT31;63013;51.104;-115.370;2023-06-26T09:53:08;19.65;46.01
74537;SHT31;63013;51.104;-115.370;2023-06-26T09:55:36;19.64;45.92
74537;SHT31;63013;51.104;-115.370;2023-06-26T09:58:03;19.64;46.00
74537;SHT31;63013;51.104;-115.370;2023-06-26T10:00:32;19.62;45.97
74537;SHT31;63013;51.104;-115.370;2023-06-26T10:02:59;19.61;45.85
74537;SHT31;63013;51.104;-115.370;2023-06-26T10:05:26;19.61;45.99
74537;SHT31;63013;51.104;-115.370;2023-06-26T10:07:54;19.59;45.92
74537;SHT31;63013;51.104;-115.370;2023-06-26T10:10:22;19.59;45.97
74537;SHT31;63013;51.104;-115.370;2023-06-26T10:12:51;19.58;45.79
74537;SHT31;63013;51.104;-115.370;2023-06-26T10:15:28;19.57;45.86
74537;SHT31;63013;51.104;-115.370;2023-06-26T10:17:57;19.57;45.77
74537;SHT31;63013;51.104;-115.370;2023-06-26T10:20:25;19.56;45.84
74537;SHT31;63013;51.104;-115.370;2023-06-26T10:22:52;19.54;45.77
74537;SHT31;63013;51.104;-115.370;2023-06-26T10:25:24;19.54;45.70
74537;SHT31;63013;51.104;-115.370;2023-06-26T10:27:54;19.53;45.73
74537;SHT31;63013;51.104;-115.370;2023-06-26T10:30:26;19.53;45.75
74537;SHT31;63013;51.104;-115.370;2023-06-26T10:33:01;19.53;45.82
74537;SHT31;63013;51.104;-115.370;2023-06-26T10:35:30;19.50;45.79
74537;SHT31;63013;51.104;-115.370;2023-06-26T10:38:01;19.50;45.76
74537;SHT31;63013;51.104;-115.370;2023-06-26T10:43:11;19.48;45.69
74537;SHT31;63013;51.104;-115.370;2023-06-26T10:45:46;19.46;45.72
74537;SHT31;63013;51.104;-115.370;2023-06-26T10:48:19;19.45;45.71
74537;SHT31;63013;51.104;-115.370;2023-06-26T10:50:48;19.44;45.59
74537;SHT31;63013;51.104;-115.370;2023-06-26T10:55:54;19.43;45.61
74537;SHT31;63013;51.104;-115.370;2023-06-26T11:01:20;19.40;45.57
74537;SHT31;63013;51.104;-115.370;2023-06-26T11:04:03;19.39;45.61
74537;SHT31;63013;51.104;-115.370;2023-06-26T11:06:33;19.38;45.54
74537;SHT31;63013;51.104;-115.370;2023-06-26T11:14:30;19.35;45.57
74537;SHT31;63013;51.104;-115.370;2023-06-26T11:16:58;19.34;45.50
74537;SHT31;63013;51.104;-115.370;2023-06-26T11:19:28;19.33;45.51
74537;SHT31;63013;51.104;-115.370;2023-06-26T11:21:59;19.33;45.48
74537;SHT31;63013;51.104;-115.370;2023-06-26T11:24:29;19.31;45.41
74537;SHT31;63013;51.104;-115.370;2023-06-26T11:26:59;19.30;45.26
74537;SHT31;63013;51.104;-115.370;2023-06-26T11:29:29;19.29;45.31
74537;SHT31;63013;51.104;-115.370;2023-06-26T11:32:02;19.29;45.42
74537;SHT31;63013;51.104;-115.370;2023-06-26T11:34:31;19.29;45.31
74537;SHT31;63013;51.104;-115.370;2023-06-26T11:36:59;19.28;45.30
74537;SHT31;63013;51.104;-115.370;2023-06-26T11:39:26;19.27;45.33
74537;SHT31;63013;51.104;-115.370;2023-06-26T11:41:54;19.26;45.43
74537;SHT31;63013;51.104;-115.370;2023-06-26T11:44:21;19.25;45.41
74537;SHT31;63013;51.104;-115.370;2023-06-26T11:46:51;19.23;45.43
74537;SHT31;63013;51.104;-115.370;2023-06-26T11:49:20;19.23;45.40
74537;SHT31;63013;51.104;-115.370;2023-06-26T11:51:50;19.21;45.29
74537;SHT31;63013;51.104;-115.370;2023-06-26T11:54:23;19.20;45.25
74537;SHT31;63013;51.104;-115.370;2023-06-26T11:56:53;19.19;45.21
74537;SHT31;63013;51.104;-115.370;2023-06-26T11:59:22;19.19;45.25
74537;SHT31;63013;51.104;-115.370;2023-06-26T12:01:50;19.18;45.16
74537;SHT31;63013;51.104;-115.370;2023-06-26T12:04:19;19.17;45.04
74537;SHT31;63013;51.104;-115.370;2023-06-26T12:06:49;19.17;45.13
74537;SHT31;63013;51.104;-115.370;2023-06-26T12:09:22;19.16;45.04
74537;SHT31;63013;51.104;-115.370;2023-06-26T12:11:53;19.15;44.91
74537;SHT31;63013;51.104;-115.370;2023-06-26T12:14:23;19.14;44.89
74537;SHT31;63013;51.104;-115.370;2023-06-26T12:16:54;19.14;44.92
74537;SHT31;63013;51.104;-115.370;2023-06-26T12:19:25;19.14;44.96
74537;SHT31;63013;51.104;-115.370;2023-06-26T12:21:52;19.13;44.88
74537;SHT31;63013;51.104;-115.370;2023-06-26T12:24:22;19.12;44.90
74537;SHT31;63013;51.104;-115.370;2023-06-26T12:26:51;19.12;44.69
74537;SHT31;63013;51.104;-115.370;2023-06-26T12:29:32;19.10;44.83
74537;SHT31;63013;51.104;-115.370;2023-06-26T12:32:00;19.10;44.82
74537;SHT31;63013;51.104;-115.370;2023-06-26T12:34:28;19.09;45.00
74537;SHT31;63013;51.104;-115.370;2023-06-26T12:37:01;19.08;45.10
74537;SHT31;63013;51.104;-115.370;2023-06-26T12:42:20;19.06;45.11
74537;SHT31;63013;51.104;-115.370;2023-06-26T12:44:49;19.05;45.13
74537;SHT31;63013;51.104;-115.370;2023-06-26T12:47:23;19.04;45.08
74537;SHT31;63013;51.104;-115.370;2023-06-26T12:49:52;19.04;45.04
74537;SHT31;63013;51.104;-115.370;2023-06-26T12:52:20;19.02;45.10
74537;SHT31;63013;51.104;-115.370;2023-06-26T12:54:51;19.01;45.19
74537;SHT31;63013;51.104;-115.370;2023-06-26T12:57:21;18.99;45.05
74537;SHT31;63013;51.104;-115.370;2023-06-26T12:59:48;18.99;44.98
74537;SHT31;63013;51.104;-115.370;2023-06-26T13:02:15;18.98;45.12
74537;SHT31;63013;51.104;-115.370;2023-06-26T13:04:43;18.96;45.11
74537;SHT31;63013;51.104;-115.370;2023-06-26T13:07:10;18.95;45.10
74537;SHT31;63013;51.104;-115.370;2023-06-26T13:09:38;18.94;45.11
74537;SHT31;63013;51.104;-115.370;2023-06-26T13:12:06;18.93;45.19
74537;SHT31;63013;51.104;-115.370;2023-06-26T13:14:34;18.92;45.13
74537;SHT31;63013;51.104;-115.370;2023-06-26T13:17:01;18.92;45.23
74537;SHT31;63013;51.104;-115.370;2023-06-26T13:19:28;18.91;45.28
74537;SHT31;63013;51.104;-115.370;2023-06-26T13:21:55;18.90;45.16
74537;SHT31;63013;51.104;-115.370;2023-06-26T13:24:22;18.88;45.07
74537;SHT31;63013;51.104;-115.370;2023-06-26T13:26:50;18.87;45.22
74537;SHT31;63013;51.104;-115.370;2023-06-26T13:29:17;18.86;45.10
74537;SHT31;63013;51.104;-115.370;2023-06-26T13:31:44;18.85;45.04
74537;SHT31;63013;51.104;-115.370;2023-06-26T13:34:19;18.84;45.01
74537;SHT31;63013;51.104;-115.370;2023-06-26T13:36:53;18.84;45.06
74537;SHT31;63013;51.104;-115.370;2023-06-26T13:39:20;18.84;45.19
74537;SHT31;63013;51.104;-115.370;2023-06-26T13:41:47;18.83;45.31
74537;SHT31;63013;51.104;-115.370;2023-06-26T13:44:14;18.83;45.35
74537;SHT31;63013;51.104;-115.370;2023-06-26T13:46:41;18.81;45.47
74537;SHT31;63013;51.104;-115.370;2023-06-26T13:49:08;18.81;45.43
74537;SHT31;63013;51.104;-115.370;2023-06-26T13:51:36;18.82;45.43
74537;SHT31;63013;51.104;-115.370;2023-06-26T13:54:03;18.81;45.49
74537;SHT31;63013;51.104;-115.370;2023-06-26T13:56:30;18.80;45.55
74537;SHT31;63013;51.104;-115.370;2023-06-26T13:58:58;18.79;45.59
74537;SHT31;63013;51.104;-115.370;2023-06-26T14:01:25;18.78;45.67
74537;SHT31;63013;51.104;-115.370;2023-06-26T14:03:53;18.78;45.93
74537;SHT31;63013;51.104;-115.370;2023-06-26T14:06:20;18.78;46.09
74537;SHT31;63013;51.104;-115.370;2023-06-26T14:08:47;18.77;46.19
74537;SHT31;63013;51.104;-115.370;2023-06-26T14:11:15;18.76;46.24
74537;SHT31;63013;51.104;-115.370;2023-06-26T14:13:43;18.76;46.37
74537;SHT31;63013;51.104;-115.370;2023-06-26T14:16:11;18.76;46.54
74537;SHT31;63013;51.104;-115.370;2023-06-26T14:18:38;18.76;46.60
74537;SHT31;63013;51.104;-115.370;2023-06-26T14:21:05;18.75;46.67
74537;SHT31;63013;51.104;-115.370;2023-06-26T14:23:32;18.74;46.63
74537;SHT31;63013;51.104;-115.370;2023-06-26T14:25:59;18.76;46.60
74537;SHT31;63013;51.104;-115.370;2023-06-26T14:28:26;18.77;46.58
74537;SHT31;63013;51.104;-115.370;2023-06-26T14:30:53;18.78;46.55
74537;SHT31;63013;51.104;-115.370;2023-06-26T14:33:20;18.78;46.58
74537;SHT31;63013;51.104;-115.370;2023-06-26T14:35:47;18.78;46.53
74537;SHT31;63013;51.104;-115.370;2023-06-26T14:38:14;18.78;46.52
74537;SHT31;63013;51.104;-115.370;2023-06-26T14:40:41;18.78;46.55
74537;SHT31;63013;51.104;-115.370;2023-06-26T14:43:08;18.78;46.56
74537;SHT31;63013;51.104;-115.370;2023-06-26T14:45:35;18.77;46.65
74537;SHT31;63013;51.104;-115.370;2023-06-26T14:48:03;18.77;46.73
74537;SHT31;63013;51.104;-115.370;2023-06-26T14:50:30;18.77;46.79
74537;SHT31;63013;51.104;-115.370;2023-06-26T14:52:57;18.76;46.79
74537;SHT31;63013;51.104;-115.370;2023-06-26T14:55:24;18.75;47.00
74537;SHT31;63013;51.104;-115.370;2023-06-26T14:57:52;18.75;47.02
74537;SHT31;63013;51.104;-115.370;2023-06-26T15:00:19;18.75;47.07
74537;SHT31;63013;51.104;-115.370;2023-06-26T15:02:47;18.75;47.04
74537;SHT31;63013;51.104;-115.370;2023-06-26T15:05:14;18.74;47.02
74537;SHT31;63013;51.104;-115.370;2023-06-26T15:07:41;18.74;47.03
74537;SHT31;63013;51.104;-115.370;2023-06-26T15:10:08;18.75;47.16
74537;SHT31;63013;51.104;-115.370;2023-06-26T15:12:36;18.74;47.19
74537;SHT31;63013;51.104;-115.370;2023-06-26T15:15:03;18.74;47.20
74537;SHT31;63013;51.104;-115.370;2023-06-26T15:17:33;18.73;47.27
74537;SHT31;63013;51.104;-115.370;2023-06-26T15:20:00;18.73;47.21
74537;SHT31;63013;51.104;-115.370;2023-06-26T15:22:27;18.73;47.33
74537;SHT31;63013;51.104;-115.370;2023-06-26T15:24:54;18.72;47.43